Meteorológiai információk azoknak akik tudják olvasni.

METAR = LHBP 292208Z AUTO 33004KT 9999 BKN066/// BKN100/// 13/09 Q1018

9 órás TAF = TAF TAF LHBP 242330Z 2423/2424 30008KT CAVOK BECMG 2506/2509 24010KT OVC030 TEMPO 2509/2515 24015G25KT 8000 -RA BKN013 OVC025 BECMG 2515/2518 30008KT CAVOK

24 órás TAF = TAF TAF LHBP 291715Z 2918/3018 32006KT CAVOK BECMG 2922/2924 VRB03KT TEMPO 3010/3018 32007KT -SHRA BKN035

ÁLLOMÁS.................... LHBP
ÉSZLELÉS................... Sat May 30, 00:08 CEST
MOST....................... Sat May 30, 00:25 CEST
IDŐ........................ 17 perccel ezelőtt
SZÉL....................... ÉÉNY irányból 4 csomó
LÁTÁSTÁVOLSÁG.............. 6 mérföld
FELHŐZET................... erősen felhős
HŐMÉRSÉKLET................ 55°F (13°C)
HARMATPONT................. 48°F (9°C)
PÁRATARTALOM............... 77%
LÉGNYOMÁS.................. 1018 hPa (30.06 in Hg)

További információ LHBP állomásról

Meteor információ kérése:        állomásról.    

 

www.tothgeza.hu

 

English version
Copyright © 2003-2020 Tóth Géza Minden jog fenntartva.